Time;durP1;ratioP1;P1;durP2;ratioP2;P2;SDS_P1;SDS_P2;PMS_P1;PMS_P2;Temp;Humidity;BMP_temperature;BMP_pressure;BME280_temperature;BME280_humidity;BME280_pressure;Samples;Min_cycle;Max_cycle;Signal;HPM_P1;HPM_P2
2021/03/18 00:00:16;;;;;;;;;;;6.60;64.40;;;;;;5014094;28;19925;-69
2021/03/18 00:02:43;;;;;;;;;;;6.60;64.60;;;;;;5019421;28;20385;-69
2021/03/18 00:05:09;;;;;;;;;;;6.60;64.60;;;;;;5013999;28;19926;-69
2021/03/18 00:07:36;;;;;;;;;;;6.60;64.80;;;;;;5013917;28;19926;-70
2021/03/18 00:10:04;;;;;;;;;;;6.60;64.70;;;;;;5014169;28;20021;-70
2021/03/18 00:12:31;;;;;;;;;;;6.60;64.80;;;;;;5013943;28;19979;-70
2021/03/18 00:14:58;;;;;;;;;;;6.60;64.90;;;;;;5012080;28;19952;-69
2021/03/18 00:17:25;;;;;;;;;;;6.60;64.70;;;;;;4994163;28;19929;-70
2021/03/18 00:19:51;;;;;;;;;;;6.60;64.80;;;;;;4994099;28;19933;-69
2021/03/18 00:22:18;;;;;;;;;;;6.50;64.90;;;;;;4994393;28;20306;-70
2021/03/18 00:24:44;;;;;;;;;;;6.60;65.20;;;;;;4994217;28;19930;-69
2021/03/18 00:27:12;;;;;;;;;;;6.60;65.10;;;;;;5009085;28;19926;-69
2021/03/18 00:29:39;;;;;;;;;;;6.60;65.00;;;;;;5013830;28;19929;-69
2021/03/18 00:32:06;;;;;;;;;;;6.70;64.80;;;;;;5018769;28;19955;-70
2021/03/18 00:34:33;;;;;;;;;;;6.70;64.40;;;;;;5033132;28;19951;-69
2021/03/18 00:36:59;;;;;;;;;;;6.70;64.60;;;;;;5014614;28;19926;-69
2021/03/18 00:39:25;;;;;;;;;;;6.70;64.10;;;;;;5014712;28;19972;-69
2021/03/18 00:41:51;;;;;;;;;;;6.70;64.00;;;;;;5022962;28;19932;-69
2021/03/18 00:44:18;;;;;;;;;;;6.70;64.20;;;;;;5032864;28;19925;-70
2021/03/18 00:46:44;;;;;;;;;;;6.70;64.20;;;;;;5022330;28;19932;-70
2021/03/18 00:49:11;;;;;;;;;;;6.70;64.00;;;;;;5012878;28;19926;-70
2021/03/18 00:51:38;;;;;;;;;;;6.80;64.10;;;;;;5032573;28;19925;-70
2021/03/18 00:54:04;;;;;;;;;;;6.80;63.50;;;;;;5015495;28;19925;-69
2021/03/18 00:56:31;;;;;;;;;;;6.90;63.00;;;;;;5013495;28;19932;-70
2021/03/18 00:58:57;;;;;;;;;;;6.90;62.70;;;;;;5014473;28;19937;-70
2021/03/18 01:01:24;;;;;;;;;;;6.90;62.80;;;;;;5014316;28;20345;-70
2021/03/18 01:03:50;;;;;;;;;;;6.80;63.00;;;;;;5016855;28;19961;-70
2021/03/18 01:06:21;;;;;;;;;;;6.70;63.00;;;;;;5013785;28;20352;-69
2021/03/18 01:08:47;;;;;;;;;;;6.70;63.00;;;;;;5010986;28;19949;-70
2021/03/18 01:11:14;;;;;;;;;;;6.70;63.20;;;;;;5014225;28;19929;-70
2021/03/18 01:13:41;;;;;;;;;;;6.70;62.90;;;;;;5015032;28;19926;-70
2021/03/18 01:16:09;;;;;;;;;;;6.70;62.90;;;;;;5032953;28;20385;-70
2021/03/18 01:18:37;;;;;;;;;;;6.70;62.80;;;;;;5016547;28;19925;-70
2021/03/18 01:21:04;;;;;;;;;;;6.70;62.80;;;;;;5018095;28;19926;-70
2021/03/18 01:23:31;;;;;;;;;;;6.70;62.70;;;;;;5017425;28;19984;-70
2021/03/18 01:25:58;;;;;;;;;;;6.70;62.70;;;;;;5016901;28;19925;-70
2021/03/18 01:28:24;;;;;;;;;;;6.70;62.70;;;;;;5031268;28;20298;-70
2021/03/18 01:30:51;;;;;;;;;;;6.70;62.80;;;;;;5017890;28;19964;-70
2021/03/18 01:33:18;;;;;;;;;;;6.70;62.70;;;;;;5027592;28;19930;-70
2021/03/18 01:35:44;;;;;;;;;;;6.70;62.40;;;;;;5017837;28;20346;-72
2021/03/18 01:38:10;;;;;;;;;;;6.60;62.10;;;;;;5035528;28;19936;-70
2021/03/18 01:40:38;;;;;;;;;;;6.60;62.30;;;;;;5016302;28;19937;-70
2021/03/18 01:43:04;;;;;;;;;;;6.70;62.20;;;;;;5018232;28;19925;-70
2021/03/18 01:45:30;;;;;;;;;;;6.70;62.20;;;;;;5016890;28;19926;-70
2021/03/18 01:47:57;;;;;;;;;;;6.70;62.30;;;;;;5036381;28;20417;-70
2021/03/18 01:50:26;;;;;;;;;;;6.60;62.30;;;;;;5021433;28;19956;-70
2021/03/18 01:52:52;;;;;;;;;;;6.70;62.50;;;;;;5016556;28;19948;-70
2021/03/18 01:55:22;;;;;;;;;;;6.70;62.40;;;;;;5029904;28;19941;-70
2021/03/18 01:57:50;;;;;;;;;;;6.60;62.40;;;;;;5026302;28;19929;-71
2021/03/18 02:00:17;;;;;;;;;;;6.60;62.40;;;;;;5015955;28;19933;-70
2021/03/18 02:02:43;;;;;;;;;;;6.60;62.40;;;;;;5023819;28;19925;-70
2021/03/18 02:05:10;;;;;;;;;;;6.60;62.60;;;;;;5035469;28;19925;-70
2021/03/18 02:07:36;;;;;;;;;;;6.60;62.90;;;;;;5033534;28;19932;-70
2021/03/18 02:10:03;;;;;;;;;;;6.60;63.00;;;;;;5020303;28;19967;-70
2021/03/18 02:12:29;;;;;;;;;;;6.60;63.20;;;;;;5026899;28;19951;-70
2021/03/18 02:14:56;;;;;;;;;;;6.60;63.20;;;;;;5033611;28;19925;-69
2021/03/18 02:17:25;;;;;;;;;;;6.60;63.20;;;;;;5020723;28;19988;-70
2021/03/18 02:20:05;;;;;;;;;;;6.60;63.10;;;;;;5015758;28;19932;-69
2021/03/18 02:22:43;;;;;;;;;;;6.60;62.80;;;;;;5012669;28;19925;-69
2021/03/18 02:25:13;;;;;;;;;;;6.60;63.00;;;;;;5017211;28;20317;-70
2021/03/18 02:28:09;;;;;;;;;;;6.60;63.20;;;;;;5019975;28;20810;-70
2021/03/18 02:30:52;;;;;;;;;;;6.60;63.20;;;;;;5033470;28;19929;-69
2021/03/18 02:33:36;;;;;;;;;;;6.60;63.20;;;;;;5019535;28;19975;-69
2021/03/18 02:36:04;;;;;;;;;;;6.60;63.20;;;;;;5023257;28;19929;-69
2021/03/18 02:38:32;;;;;;;;;;;6.70;63.00;;;;;;5026948;28;19929;-69
2021/03/18 02:41:02;;;;;;;;;;;6.70;62.60;;;;;;5015849;28;19929;-69
2021/03/18 02:43:31;;;;;;;;;;;6.70;62.70;;;;;;5026043;28;19929;-70
2021/03/18 02:46:00;;;;;;;;;;;6.70;62.90;;;;;;5024562;28;19950;-70
2021/03/18 02:48:28;;;;;;;;;;;6.70;63.10;;;;;;5029328;28;19933;-69
2021/03/18 02:50:55;;;;;;;;;;;6.60;63.20;;;;;;5015387;28;19929;-70
2021/03/18 02:53:24;;;;;;;;;;;6.60;63.30;;;;;;5015493;28;19933;-69
2021/03/18 02:55:51;;;;;;;;;;;6.60;63.40;;;;;;5014805;28;19929;-70
2021/03/18 02:58:20;;;;;;;;;;;6.60;63.30;;;;;;5016360;28;19930;-69
2021/03/18 03:00:47;;;;;;;;;;;6.60;63.20;;;;;;5014877;28;20306;-70
2021/03/18 03:03:14;;;;;;;;;;;6.60;63.10;;;;;;5019950;28;19979;-70
2021/03/18 03:05:40;;;;;;;;;;;6.60;63.10;;;;;;5016057;28;19926;-69
2021/03/18 03:08:07;;;;;;;;;;;6.70;63.20;;;;;;5016622;28;19925;-70
2021/03/18 03:10:35;;;;;;;;;;;6.70;62.80;;;;;;5014841;28;19930;-70
2021/03/18 03:13:02;;;;;;;;;;;6.80;62.90;;;;;;5014700;28;19932;-70
2021/03/18 03:15:29;;;;;;;;;;;6.80;62.90;;;;;;5014672;28;19929;-70
2021/03/18 03:17:57;;;;;;;;;;;6.80;62.90;;;;;;5016959;28;19941;-70
2021/03/18 03:20:23;;;;;;;;;;;6.80;63.10;;;;;;5014971;28;19929;-70
2021/03/18 03:22:50;;;;;;;;;;;6.70;63.10;;;;;;5030177;28;20390;-70
2021/03/18 03:25:16;;;;;;;;;;;6.70;63.30;;;;;;5030059;28;19925;-70
2021/03/18 03:27:45;;;;;;;;;;;6.70;63.10;;;;;;5028291;28;19925;-70
2021/03/18 03:30:12;;;;;;;;;;;6.70;63.10;;;;;;5017960;28;19975;-70
2021/03/18 03:32:38;;;;;;;;;;;6.70;63.10;;;;;;5024737;28;19929;-70
2021/03/18 03:35:06;;;;;;;;;;;6.70;63.20;;;;;;5033871;28;20263;-70
2021/03/18 03:37:32;;;;;;;;;;;6.70;63.10;;;;;;5016947;28;19933;-70
2021/03/18 03:39:58;;;;;;;;;;;6.70;63.00;;;;;;5024624;28;20390;-70
2021/03/18 03:42:24;;;;;;;;;;;6.70;62.90;;;;;;5031523;28;20299;-70
2021/03/18 03:44:52;;;;;;;;;;;6.70;63.00;;;;;;5031138;28;19934;-70
2021/03/18 03:47:18;;;;;;;;;;;6.80;63.20;;;;;;5022101;28;19929;-70
2021/03/18 03:49:44;;;;;;;;;;;6.80;63.00;;;;;;5026527;28;19979;-70
2021/03/18 03:52:19;;;;;;;;;;;6.80;63.00;;;;;;5032792;28;19932;-70
2021/03/18 03:54:47;;;;;;;;;;;6.90;63.10;;;;;;5014054;28;19925;-70
2021/03/18 03:57:17;;;;;;;;;;;6.90;62.80;;;;;;5016242;28;19932;-70
2021/03/18 03:59:44;;;;;;;;;;;6.90;62.80;;;;;;5016272;28;19980;-70
2021/03/18 04:02:13;;;;;;;;;;;7.00;62.60;;;;;;5024970;28;20404;-70
2021/03/18 04:04:41;;;;;;;;;;;7.00;62.60;;;;;;5013735;28;19936;-70
2021/03/18 04:07:09;;;;;;;;;;;7.00;62.90;;;;;;5013610;28;20001;-69
2021/03/18 04:09:37;;;;;;;;;;;7.00;63.10;;;;;;5013682;28;19930;-70
2021/03/18 04:12:04;;;;;;;;;;;6.90;62.80;;;;;;5026759;28;19925;-70
2021/03/18 04:14:32;;;;;;;;;;;6.90;62.70;;;;;;5013519;28;19934;-69
2021/03/18 04:17:00;;;;;;;;;;;6.90;62.90;;;;;;5012889;28;20382;-70
2021/03/18 04:19:27;;;;;;;;;;;6.90;63.10;;;;;;5024106;28;19925;-70
2021/03/18 04:21:53;;;;;;;;;;;6.80;63.10;;;;;;5031666;28;19937;-70
2021/03/18 04:24:21;;;;;;;;;;;6.80;63.10;;;;;;5033282;28;19932;-70
2021/03/18 04:26:47;;;;;;;;;;;6.80;63.00;;;;;;5022696;28;19933;-70
2021/03/18 04:29:14;;;;;;;;;;;6.80;62.90;;;;;;5013335;28;19933;-70
2021/03/18 04:31:41;;;;;;;;;;;6.90;62.70;;;;;;5027059;28;20431;-70
2021/03/18 04:34:08;;;;;;;;;;;6.90;62.30;;;;;;5015147;28;19926;-70
2021/03/18 04:36:36;;;;;;;;;;;6.80;62.00;;;;;;5025605;28;19932;-70
2021/03/18 04:39:03;;;;;;;;;;;6.80;62.10;;;;;;5019935;28;19926;-70
2021/03/18 04:41:30;;;;;;;;;;;6.80;62.20;;;;;;5019591;28;19932;-69
2021/03/18 04:43:56;;;;;;;;;;;6.80;62.10;;;;;;5019141;28;19925;-70
2021/03/18 04:46:23;;;;;;;;;;;6.80;62.10;;;;;;5031541;28;19925;-70
2021/03/18 04:48:50;;;;;;;;;;;6.80;62.10;;;;;;5013273;28;19929;-70
2021/03/18 04:51:17;;;;;;;;;;;6.80;61.60;;;;;;5013378;28;19925;-69
2021/03/18 04:53:44;;;;;;;;;;;6.80;61.80;;;;;;5019217;28;19925;-70
2021/03/18 04:56:10;;;;;;;;;;;6.80;61.90;;;;;;5032790;28;19925;-70
2021/03/18 04:58:38;;;;;;;;;;;6.80;61.80;;;;;;5015909;28;19925;-70
2021/03/18 05:01:05;;;;;;;;;;;6.80;61.60;;;;;;5017715;28;19967;-70
2021/03/18 05:03:33;;;;;;;;;;;6.80;61.30;;;;;;5020306;28;19932;-70
2021/03/18 05:06:00;;;;;;;;;;;6.80;60.70;;;;;;5013737;28;19929;-70
2021/03/18 05:08:27;;;;;;;;;;;6.80;60.90;;;;;;5026192;28;19925;-70
2021/03/18 05:10:54;;;;;;;;;;;6.80;61.00;;;;;;5019349;28;19925;-70
2021/03/18 05:13:20;;;;;;;;;;;6.80;61.20;;;;;;5026642;28;20274;-70
2021/03/18 05:15:48;;;;;;;;;;;6.80;61.10;;;;;;5013286;28;20390;-70
2021/03/18 05:18:15;;;;;;;;;;;6.70;61.00;;;;;;5028252;28;19952;-70
2021/03/18 05:20:42;;;;;;;;;;;6.80;61.10;;;;;;5014125;28;19932;-71
2021/03/18 05:23:10;;;;;;;;;;;6.70;60.60;;;;;;5013355;28;19926;-70
2021/03/18 05:25:36;;;;;;;;;;;6.70;60.40;;;;;;5026808;28;19925;-70
2021/03/18 05:28:04;;;;;;;;;;;6.70;60.30;;;;;;5011978;28;19925;-69
2021/03/18 05:30:31;;;;;;;;;;;6.60;59.90;;;;;;5021327;28;19926;-69
2021/03/18 05:32:58;;;;;;;;;;;6.60;60.00;;;;;;5024882;28;19925;-70
2021/03/18 05:35:24;;;;;;;;;;;6.60;60.30;;;;;;5012295;28;19925;-70
2021/03/18 05:37:51;;;;;;;;;;;6.60;60.60;;;;;;5012187;28;19933;-70
2021/03/18 05:40:18;;;;;;;;;;;6.60;60.70;;;;;;5014477;28;19925;-70
2021/03/18 05:42:44;;;;;;;;;;;6.60;60.70;;;;;;5023955;28;20337;-70
2021/03/18 05:45:13;;;;;;;;;;;6.60;60.70;;;;;;5012964;28;19925;-70
2021/03/18 05:47:39;;;;;;;;;;;6.60;60.70;;;;;;5012703;28;19929;-69
2021/03/18 05:50:06;;;;;;;;;;;6.60;60.80;;;;;;5012395;28;19948;-70
2021/03/18 05:52:33;;;;;;;;;;;6.70;61.60;;;;;;5013851;28;19974;-69
2021/03/18 05:55:00;;;;;;;;;;;6.70;60.90;;;;;;5010872;28;19948;-70
2021/03/18 05:57:26;;;;;;;;;;;6.70;61.50;;;;;;5012599;28;19949;-70
2021/03/18 05:59:53;;;;;;;;;;;6.70;60.70;;;;;;5013260;28;19926;-70
2021/03/18 06:02:20;;;;;;;;;;;6.70;60.70;;;;;;5020269;28;19983;-70
2021/03/18 06:04:47;;;;;;;;;;;6.70;60.80;;;;;;5018468;28;19993;-69
2021/03/18 06:07:14;;;;;;;;;;;6.70;60.90;;;;;;5016610;28;19937;-70
2021/03/18 06:09:40;;;;;;;;;;;6.80;61.00;;;;;;5016143;28;19925;-70
2021/03/18 06:12:08;;;;;;;;;;;6.80;61.00;;;;;;5020207;28;20297;-69
2021/03/18 06:14:34;;;;;;;;;;;6.80;61.00;;;;;;5023504;28;20374;-71
2021/03/18 06:17:01;;;;;;;;;;;6.90;60.80;;;;;;5017117;28;19926;-70
2021/03/18 06:19:28;;;;;;;;;;;7.00;60.70;;;;;;5015803;28;19933;-70
2021/03/18 06:21:56;;;;;;;;;;;7.10;61.30;;;;;;5023250;28;19967;-70
2021/03/18 06:24:23;;;;;;;;;;;7.10;60.20;;;;;;5027716;28;19925;-70
2021/03/18 06:26:49;;;;;;;;;;;7.10;60.20;;;;;;5006689;28;20358;-71
2021/03/18 06:29:29;;;;;;;;;;;7.10;60.00;;;;;;5014312;28;19943;-70
2021/03/18 06:31:56;;;;;;;;;;;7.10;60.10;;;;;;5018943;28;19925;-71
2021/03/18 06:34:37;;;;;;;;;;;7.10;60.30;;;;;;5015161;28;19926;-71
2021/03/18 06:37:03;;;;;;;;;;;7.10;60.40;;;;;;5015581;28;19972;-71
2021/03/18 06:39:30;;;;;;;;;;;7.00;60.70;;;;;;5015301;28;19937;-71
2021/03/18 06:41:57;;;;;;;;;;;7.10;61.10;;;;;;5015617;28;19961;-71
2021/03/18 06:44:24;;;;;;;;;;;7.10;61.20;;;;;;5015420;28;20361;-71
2021/03/18 06:46:51;;;;;;;;;;;7.20;61.20;;;;;;5013763;28;20385;-70
2021/03/18 06:49:18;;;;;;;;;;;7.20;61.00;;;;;;5015169;28;19987;-71
2021/03/18 06:52:00;;;;;;;;;;;7.30;60.50;;;;;;5014998;28;19925;-71
2021/03/18 06:54:26;;;;;;;;;;;7.30;60.00;;;;;;5015242;28;19925;-71
2021/03/18 06:56:53;;;;;;;;;;;7.40;60.20;;;;;;5013680;28;19937;-71
2021/03/18 06:59:20;;;;;;;;;;;7.40;60.90;;;;;;5014479;28;19930;-71
2021/03/18 07:02:01;;;;;;;;;;;7.50;60.40;;;;;;5018087;28;19948;-71
2021/03/18 07:04:32;;;;;;;;;;;7.60;60.30;;;;;;5014756;28;20397;-71
2021/03/18 07:07:16;;;;;;;;;;;7.60;60.10;;;;;;5015128;28;19975;-72
2021/03/18 07:09:44;;;;;;;;;;;7.60;60.40;;;;;;5015233;28;20378;-71
2021/03/18 07:12:11;;;;;;;;;;;7.70;60.20;;;;;;4996802;28;19926;-71
2021/03/18 07:14:40;;;;;;;;;;;7.70;59.80;;;;;;5006105;28;19997;-73
2021/03/18 07:17:07;;;;;;;;;;;7.70;60.00;;;;;;5015201;28;19948;-71
2021/03/18 07:19:34;;;;;;;;;;;7.70;59.60;;;;;;5014292;28;19925;-71
2021/03/18 07:22:01;;;;;;;;;;;7.80;59.90;;;;;;5012403;28;19926;-70
2021/03/18 07:24:29;;;;;;;;;;;8.00;59.80;;;;;;5014434;28;20393;-71
2021/03/18 07:26:56;;;;;;;;;;;8.10;58.20;;;;;;5013296;28;20020;-70
2021/03/18 07:29:24;;;;;;;;;;;8.10;57.50;;;;;;5014192;28;19925;-71
2021/03/18 07:31:51;;;;;;;;;;;8.20;58.10;;;;;;5015301;28;19979;-71
2021/03/18 07:34:18;;;;;;;;;;;8.30;57.90;;;;;;5013324;28;19930;-71
2021/03/18 07:36:45;;;;;;;;;;;8.40;57.60;;;;;;5011927;28;19925;-71
2021/03/18 07:39:13;;;;;;;;;;;8.50;57.30;;;;;;5011622;28;19925;-71
2021/03/18 07:41:39;;;;;;;;;;;8.50;56.80;;;;;;5013668;28;20294;-71
2021/03/18 07:44:06;;;;;;;;;;;8.50;56.10;;;;;;5012466;28;19929;-71
2021/03/18 07:46:34;;;;;;;;;;;8.60;56.00;;;;;;5012238;28;19940;-70
2021/03/18 07:49:02;;;;;;;;;;;8.70;56.60;;;;;;5012578;28;20366;-71
2021/03/18 07:51:29;;;;;;;;;;;8.80;56.60;;;;;;5013741;28;19932;-71
2021/03/18 07:53:57;;;;;;;;;;;9.00;56.20;;;;;;5014373;28;19973;-71
2021/03/18 07:56:25;;;;;;;;;;;9.00;54.80;;;;;;5013647;28;19976;-71
2021/03/18 07:58:52;;;;;;;;;;;9.20;54.90;;;;;;5014235;28;19933;-71
2021/03/18 08:01:34;;;;;;;;;;;9.40;54.50;;;;;;5013809;28;19930;-71
2021/03/18 08:04:01;;;;;;;;;;;9.60;54.60;;;;;;5009279;28;19933;-71
2021/03/18 08:06:42;;;;;;;;;;;9.80;53.60;;;;;;5012505;28;19926;-71
2021/03/18 08:09:09;;;;;;;;;;;9.90;53.40;;;;;;5012986;28;19929;-71
2021/03/18 08:11:37;;;;;;;;;;;10.10;52.60;;;;;;5012636;28;19926;-70
2021/03/18 08:14:06;;;;;;;;;;;10.20;52.20;;;;;;5011970;28;20401;-70
2021/03/18 08:16:33;;;;;;;;;;;10.20;51.70;;;;;;5013367;28;19925;-71
2021/03/18 08:18:59;;;;;;;;;;;10.10;50.70;;;;;;5013379;28;19930;-70
2021/03/18 08:21:33;;;;;;;;;;;10.00;51.30;;;;;;5013615;28;20016;-69
2021/03/18 08:24:00;;;;;;;;;;;10.10;51.20;;;;;;5000903;28;19926;-70
2021/03/18 08:26:44;;;;;;;;;;;10.00;50.40;;;;;;5012915;28;20306;-70
2021/03/18 08:29:14;;;;;;;;;;;10.00;50.30;;;;;;5010627;28;19937;-69
2021/03/18 08:31:45;;;;;;;;;;;10.00;49.80;;;;;;5014008;28;19926;-70
2021/03/18 08:34:11;;;;;;;;;;;10.00;50.10;;;;;;5013251;28;19925;-70
2021/03/18 08:36:38;;;;;;;;;;;10.00;50.30;;;;;;5013218;28;19926;-70
2021/03/18 08:39:07;;;;;;;;;;;9.90;51.20;;;;;;5013496;28;19937;-70
2021/03/18 08:41:34;;;;;;;;;;;9.90;51.40;;;;;;5011877;28;20026;-70
2021/03/18 08:44:14;;;;;;;;;;;10.20;50.70;;;;;;5013544;28;19925;-70
2021/03/18 08:46:46;;;;;;;;;;;10.40;50.00;;;;;;5013346;28;20016;-70
2021/03/18 08:49:34;;;;;;;;;;;10.60;49.40;;;;;;5013292;28;19933;-70
2021/03/18 08:52:01;;;;;;;;;;;10.90;48.80;;;;;;5008224;28;19995;-70
2021/03/18 08:54:49;;;;;;;;;;;11.10;48.00;;;;;;5013405;28;19933;-70
2021/03/18 08:57:23;;;;;;;;;;;11.10;47.30;;;;;;5012856;28;19925;-70
2021/03/18 08:59:51;;;;;;;;;;;11.10;48.10;;;;;;5013216;28;19933;-70
2021/03/18 09:02:18;;;;;;;;;;;11.20;48.30;;;;;;5018813;28;20293;-70
2021/03/18 09:04:45;;;;;;;;;;;11.40;47.70;;;;;;5013191;28;19926;-70
2021/03/18 09:07:12;;;;;;;;;;;11.50;46.40;;;;;;5010724;28;20294;-70
2021/03/18 09:09:39;;;;;;;;;;;11.40;46.50;;;;;;5013106;28;19926;-70
2021/03/18 09:12:06;;;;;;;;;;;11.30;46.80;;;;;;5013468;28;19933;-70
2021/03/18 09:14:33;;;;;;;;;;;11.10;47.00;;;;;;5012681;28;20032;-70
2021/03/18 09:17:04;;;;;;;;;;;10.90;47.30;;;;;;5013098;28;19940;-69
2021/03/18 09:19:30;;;;;;;;;;;10.80;47.00;;;;;;5012617;28;19925;-70
2021/03/18 09:21:56;;;;;;;;;;;10.60;46.90;;;;;;5013117;28;20298;-70
2021/03/18 09:24:22;;;;;;;;;;;10.60;47.00;;;;;;5013071;28;20302;-70
2021/03/18 09:26:49;;;;;;;;;;;10.50;46.90;;;;;;5012926;28;19964;-70
2021/03/18 09:29:15;;;;;;;;;;;10.40;46.60;;;;;;5012056;28;19955;-70
2021/03/18 09:31:41;;;;;;;;;;;10.30;46.70;;;;;;5014780;28;19933;-70
2021/03/18 09:34:08;;;;;;;;;;;10.20;46.20;;;;;;5012634;28;20294;-70
2021/03/18 09:36:35;;;;;;;;;;;10.20;46.70;;;;;;5016381;28;19929;-70
2021/03/18 09:39:04;;;;;;;;;;;10.30;47.30;;;;;;5016982;28;19952;-70
2021/03/18 09:41:31;;;;;;;;;;;10.30;47.30;;;;;;5017030;28;19933;-70
2021/03/18 09:44:02;;;;;;;;;;;10.20;46.70;;;;;;5016956;28;19927;-70
2021/03/18 09:46:28;;;;;;;;;;;10.20;47.10;;;;;;5016645;28;19926;-70
2021/03/18 09:48:57;;;;;;;;;;;10.10;47.30;;;;;;5016713;28;19937;-70
2021/03/18 09:51:24;;;;;;;;;;;10.20;47.50;;;;;;5016747;28;19929;-70
2021/03/18 09:53:58;;;;;;;;;;;10.10;47.60;;;;;;5016718;28;19925;-70
2021/03/18 09:56:25;;;;;;;;;;;10.00;48.10;;;;;;5016641;28;19992;-70
2021/03/18 09:58:51;;;;;;;;;;;9.80;48.90;;;;;;5016531;28;20297;-71
2021/03/18 10:01:18;;;;;;;;;;;9.80;49.10;;;;;;5014749;28;19926;-70
2021/03/18 10:03:52;;;;;;;;;;;9.90;49.50;;;;;;5021986;28;20382;-69
2021/03/18 10:06:23;;;;;;;;;;;10.10;48.60;;;;;;5016360;28;19925;-70
2021/03/18 10:08:50;;;;;;;;;;;10.20;48.30;;;;;;5016307;28;19934;-70
2021/03/18 10:11:17;;;;;;;;;;;10.40;47.80;;;;;;5016274;28;19932;-70
2021/03/18 10:13:43;;;;;;;;;;;10.50;47.50;;;;;;5016135;28;19926;-70
2021/03/18 10:16:10;;;;;;;;;;;10.50;47.40;;;;;;5016418;28;19933;-70
2021/03/18 10:18:36;;;;;;;;;;;10.60;47.00;;;;;;5015868;28;20305;-70
2021/03/18 10:21:03;;;;;;;;;;;10.70;46.20;;;;;;5003706;28;19930;-70
2021/03/18 10:23:30;;;;;;;;;;;10.70;45.10;;;;;;4985016;28;19929;-70
2021/03/18 10:25:57;;;;;;;;;;;10.80;45.50;;;;;;4993424;28;19926;-70
2021/03/18 10:28:28;;;;;;;;;;;10.70;45.10;;;;;;4988708;28;19930;-70
2021/03/18 10:30:55;;;;;;;;;;;10.80;45.30;;;;;;4991127;28;19926;-70
2021/03/18 10:33:22;;;;;;;;;;;11.00;45.80;;;;;;4999235;28;19933;-70
2021/03/18 10:35:58;;;;;;;;;;;11.40;46.10;;;;;;4987438;28;19934;-70
2021/03/18 10:38:30;;;;;;;;;;;11.60;45.30;;;;;;4990880;28;19929;-70
2021/03/18 10:40:58;;;;;;;;;;;11.50;43.80;;;;;;4992003;28;20390;-70
2021/03/18 10:43:26;;;;;;;;;;;11.40;43.70;;;;;;4995052;28;19988;-70
2021/03/18 10:45:53;;;;;;;;;;;11.20;43.80;;;;;;4993932;28;19945;-70
2021/03/18 10:48:21;;;;;;;;;;;11.10;43.30;;;;;;4994163;28;19929;-71
2021/03/18 10:50:47;;;;;;;;;;;11.00;43.30;;;;;;4994003;28;19937;-70
2021/03/18 10:53:14;;;;;;;;;;;11.00;43.60;;;;;;4993627;28;20379;-71
2021/03/18 10:55:41;;;;;;;;;;;10.90;44.20;;;;;;4993953;28;19948;-70
2021/03/18 10:58:09;;;;;;;;;;;10.90;44.30;;;;;;4983655;28;19937;-70
2021/03/18 11:00:37;;;;;;;;;;;10.90;43.80;;;;;;4992136;28;20387;-70
2021/03/18 11:03:05;;;;;;;;;;;10.90;43.30;;;;;;5009142;28;19979;-70
2021/03/18 11:05:33;;;;;;;;;;;10.90;43.00;;;;;;4994872;28;19925;-70
2021/03/18 11:08:00;;;;;;;;;;;11.00;42.90;;;;;;5007385;28;19980;-70
2021/03/18 11:10:34;;;;;;;;;;;11.00;42.50;;;;;;5018903;28;20369;-69
2021/03/18 11:13:03;;;;;;;;;;;11.00;42.60;;;;;;5028850;28;19925;-69
2021/03/18 11:15:44;;;;;;;;;;;11.00;43.10;;;;;;5014886;28;19933;-69
2021/03/18 11:18:10;;;;;;;;;;;11.00;43.50;;;;;;5014311;28;19929;-69
2021/03/18 11:20:38;;;;;;;;;;;11.00;43.60;;;;;;5012705;28;19952;-69
2021/03/18 11:23:04;;;;;;;;;;;11.00;43.80;;;;;;5014554;28;19926;-69
2021/03/18 11:25:30;;;;;;;;;;;11.10;43.80;;;;;;5017343;28;19925;-69
2021/03/18 11:27:57;;;;;;;;;;;11.20;42.70;;;;;;5018019;28;19988;-69
2021/03/18 11:30:27;;;;;;;;;;;11.20;42.80;;;;;;5017800;28;19926;-69
2021/03/18 11:33:07;;;;;;;;;;;11.30;42.90;;;;;;5021744;28;19992;-69
2021/03/18 11:35:34;;;;;;;;;;;11.40;43.00;;;;;;5014939;28;19925;-69
2021/03/18 11:38:00;;;;;;;;;;;11.50;42.50;;;;;;5017826;28;19992;-71
2021/03/18 11:40:26;;;;;;;;;;;11.50;41.90;;;;;;5014198;28;19925;-69
2021/03/18 11:42:52;;;;;;;;;;;11.50;41.20;;;;;;5013614;28;19979;-69
2021/03/18 11:45:19;;;;;;;;;;;11.60;41.50;;;;;;5014889;28;19926;-69
2021/03/18 11:47:45;;;;;;;;;;;11.70;40.80;;;;;;5014438;28;20433;-69
2021/03/18 11:50:13;;;;;;;;;;;11.80;41.10;;;;;;5014022;28;19980;-69
2021/03/18 11:52:39;;;;;;;;;;;11.90;40.40;;;;;;5012654;28;19929;-69
2021/03/18 11:55:07;;;;;;;;;;;11.90;39.60;;;;;;5013833;28;19926;-69
2021/03/18 11:57:33;;;;;;;;;;;11.90;39.00;;;;;;5013622;28;19972;-70
2021/03/18 12:00:00;;;;;;;;;;;11.80;39.40;;;;;;5013954;28;19948;-69
2021/03/18 12:02:26;;;;;;;;;;;11.50;39.70;;;;;;5013882;28;19996;-69
2021/03/18 12:04:52;;;;;;;;;;;11.30;39.90;;;;;;5018914;28;19965;-69
2021/03/18 12:07:20;;;;;;;;;;;11.10;40.40;;;;;;4995748;28;19936;-69
2021/03/18 12:09:47;;;;;;;;;;;11.00;40.90;;;;;;4997620;28;19926;-69
2021/03/18 12:12:13;;;;;;;;;;;11.00;41.60;;;;;;5012290;28;19929;-70
2021/03/18 12:14:39;;;;;;;;;;;10.90;42.30;;;;;;5011346;28;20378;-69
2021/03/18 12:17:05;;;;;;;;;;;10.80;42.60;;;;;;5012869;28;19949;-69
2021/03/18 12:19:32;;;;;;;;;;;10.80;43.10;;;;;;5013218;28;19932;-70
2021/03/18 12:21:58;;;;;;;;;;;11.00;43.70;;;;;;5013505;28;19925;-70
2021/03/18 12:24:25;;;;;;;;;;;11.10;44.30;;;;;;5013579;28;19926;-69
2021/03/18 12:26:52;;;;;;;;;;;11.30;44.30;;;;;;5011865;28;20333;-69
2021/03/18 12:29:19;;;;;;;;;;;11.40;44.30;;;;;;5012215;28;19929;-69
2021/03/18 12:31:45;;;;;;;;;;;11.50;44.10;;;;;;5011809;28;20028;-69
2021/03/18 12:34:11;;;;;;;;;;;11.60;43.80;;;;;;5008979;28;19933;-69
2021/03/18 12:36:38;;;;;;;;;;;11.60;43.60;;;;;;5013168;28;20393;-70
2021/03/18 12:39:06;;;;;;;;;;;11.50;44.20;;;;;;5013164;28;20371;-69
2021/03/18 12:41:33;;;;;;;;;;;11.40;45.10;;;;;;5022401;28;19972;-69
2021/03/18 12:44:00;;;;;;;;;;;11.40;45.90;;;;;;5012492;28;19929;-70
2021/03/18 12:46:26;;;;;;;;;;;11.30;46.30;;;;;;5013325;28;20005;-70
2021/03/18 12:48:53;;;;;;;;;;;11.30;46.40;;;;;;5016095;28;19929;-70
2021/03/18 12:51:19;;;;;;;;;;;11.30;46.50;;;;;;5019428;28;19925;-70
2021/03/18 12:53:45;;;;;;;;;;;11.30;46.50;;;;;;5011745;28;19926;-70
2021/03/18 12:56:12;;;;;;;;;;;11.20;46.60;;;;;;5013971;28;19925;-70
2021/03/18 12:58:39;;;;;;;;;;;11.20;46.80;;;;;;5015845;28;20390;-70
2021/03/18 13:01:05;;;;;;;;;;;11.20;46.90;;;;;;5008410;28;19971;-70
2021/03/18 13:03:31;;;;;;;;;;;11.10;47.10;;;;;;5014104;28;19932;-69
2021/03/18 13:05:58;;;;;;;;;;;11.10;47.20;;;;;;5011546;28;19956;-70
2021/03/18 13:08:24;;;;;;;;;;;11.10;46.50;;;;;;5010586;28;19945;-69
2021/03/18 13:10:50;;;;;;;;;;;11.10;46.70;;;;;;5012177;28;19930;-70
2021/03/18 13:13:16;;;;;;;;;;;11.10;46.90;;;;;;5013080;28;19925;-70
2021/03/18 13:15:43;;;;;;;;;;;11.20;47.10;;;;;;5013224;28;19926;-69
2021/03/18 13:18:10;;;;;;;;;;;11.30;46.90;;;;;;5012907;28;19933;-70
2021/03/18 13:20:37;;;;;;;;;;;11.40;46.50;;;;;;5011284;28;20282;-70
2021/03/18 13:23:03;;;;;;;;;;;11.40;45.60;;;;;;5012346;28;20263;-70
2021/03/18 13:25:29;;;;;;;;;;;11.40;45.80;;;;;;5013110;28;19937;-70
2021/03/18 13:27:56;;;;;;;;;;;11.40;45.50;;;;;;5011886;28;19926;-70
2021/03/18 13:30:23;;;;;;;;;;;11.30;45.20;;;;;;5012907;28;20397;-70
2021/03/18 13:32:51;;;;;;;;;;;11.30;45.20;;;;;;5023539;28;19925;-70
2021/03/18 13:35:18;;;;;;;;;;;11.20;44.60;;;;;;5010361;28;19932;-70
2021/03/18 13:37:44;;;;;;;;;;;11.20;44.40;;;;;;5011902;28;19932;-70
2021/03/18 13:40:11;;;;;;;;;;;11.10;44.50;;;;;;5012412;28;19929;-70
2021/03/18 13:42:37;;;;;;;;;;;11.10;45.00;;;;;;5012629;28;20378;-69
2021/03/18 13:45:04;;;;;;;;;;;11.00;44.80;;;;;;5012568;28;19933;-69
2021/03/18 13:47:30;;;;;;;;;;;11.00;44.60;;;;;;5012051;28;20004;-69
2021/03/18 13:49:57;;;;;;;;;;;10.90;44.80;;;;;;5011564;28;19933;-69
2021/03/18 13:52:24;;;;;;;;;;;10.90;44.60;;;;;;5012754;28;19925;-69
2021/03/18 13:54:51;;;;;;;;;;;10.70;44.20;;;;;;5012166;28;19980;-69
2021/03/18 13:57:17;;;;;;;;;;;10.70;44.60;;;;;;5011848;28;19925;-70
2021/03/18 13:59:43;;;;;;;;;;;10.60;44.30;;;;;;5012535;28;19925;-70
2021/03/18 14:02:10;;;;;;;;;;;10.60;44.50;;;;;;5016408;28;19987;-70
2021/03/18 14:04:36;;;;;;;;;;;10.60;44.70;;;;;;5011443;28;19932;-70
2021/03/18 14:07:03;;;;;;;;;;;10.60;44.50;;;;;;5011275;28;19926;-69
2021/03/18 14:09:30;;;;;;;;;;;10.60;44.20;;;;;;5011365;28;20017;-69
2021/03/18 14:11:56;;;;;;;;;;;10.60;43.70;;;;;;5011830;28;20290;-70
2021/03/18 14:14:22;;;;;;;;;;;10.50;42.90;;;;;;5012390;28;19933;-70
2021/03/18 14:16:48;;;;;;;;;;;10.40;43.20;;;;;;5012430;28;19987;-70
2021/03/18 14:19:15;;;;;;;;;;;10.40;43.20;;;;;;5011835;28;19929;-70
2021/03/18 14:21:41;;;;;;;;;;;10.50;43.40;;;;;;5013978;28;19929;-70
2021/03/18 14:24:09;;;;;;;;;;;10.50;43.00;;;;;;5015199;28;20275;-70
2021/03/18 14:26:35;;;;;;;;;;;10.50;42.50;;;;;;5015623;28;19925;-69